Time;durP1;ratioP1;P1;durP2;ratioP2;P2;SDS_P1;SDS_P2;PMS_P1;PMS_P2;Temp;Humidity;BMP_temperature;BMP_pressure;BME280_temperature;BME280_humidity;BME280_pressure;Samples;Min_cycle;Max_cycle;Signal;HPM_P1;HPM_P2
2022/12/30 00:00:20;;;;;;;6.37;4.45;;;;;;;4.08;89.73;101610.81;1710315;82;21102;-84
2022/12/30 00:02:47;;;;;;;8.10;5.08;;;;;;;4.14;89.72;101610.72;1687359;83;20980;-86
2022/12/30 00:05:13;;;;;;;7.85;5.47;;;;;;;4.21;89.70;101621.86;1723559;82;21034;-85
2022/12/30 00:07:40;;;;;;;8.28;4.75;;;;;;;4.27;89.71;101625.65;1700412;82;20988;-86
2022/12/30 00:10:07;;;;;;;6.87;4.28;;;;;;;4.36;89.67;101626.78;1681702;83;20926;-85
2022/12/30 00:35:15;;;;;;;7.78;3.98;;;;;;;4.70;87.98;101601.91;1714352;82;20951;-85
2022/12/30 00:37:41;;;;;;;7.55;4.12;;;;;;;4.67;87.79;101602.83;1730143;82;20959;-85
2022/12/30 00:40:09;;;;;;;4.70;3.65;;;;;;;4.65;87.74;101606.34;1718478;82;21142;-85
2022/12/30 00:45:22;;;;;;;9.50;4.97;;;;;;;4.61;88.02;101591.70;1718645;82;21003;-86
2022/12/30 00:47:49;;;;;;;8.58;4.65;;;;;;;4.61;88.29;101587.36;1721719;82;21002;-85
2022/12/30 00:58:30;;;;;;;11.15;6.35;;;;;;;4.77;88.54;101576.21;1675780;83;20920;-85
2022/12/30 01:00:57;;;;;;;8.65;5.87;;;;;;;4.78;88.59;101568.39;1672303;85;20972;-85
2022/12/30 01:03:23;;;;;;;11.40;6.03;;;;;;;4.78;88.69;101567.55;1656557;85;20893;-84
2022/12/30 01:05:50;;;;;;;12.33;6.60;;;;;;;4.77;88.74;101567.96;1673171;83;21857;-84
2022/12/30 01:08:17;;;;;;;10.85;6.35;;;;;;;4.78;88.69;101575.34;1671657;83;20921;-83
2022/12/30 01:10:43;;;;;;;11.43;5.58;;;;;;;4.80;88.62;101570.94;1680314;84;21481;-85
2022/12/30 01:13:10;;;;;;;7.72;4.28;;;;;;;4.80;88.53;101572.69;1667776;85;21690;-85
2022/12/30 01:15:37;;;;;;;8.68;5.55;;;;;;;4.80;88.52;101575.28;1671857;83;21075;-86
2022/12/30 01:18:04;;;;;;;9.93;5.78;;;;;;;4.82;88.56;101574.36;1662794;84;21756;-85
2022/12/30 01:20:30;;;;;;;10.38;6.60;;;;;;;4.82;88.59;101573.52;1670534;83;20960;-85
2022/12/30 01:22:57;;;;;;;11.15;6.15;;;;;;;4.83;88.61;101569.59;1674684;83;20936;-84
2022/12/30 01:25:24;;;;;;;10.18;6.35;;;;;;;4.84;88.64;101571.73;1682924;83;21012;-85
2022/12/30 01:27:51;;;;;;;8.73;5.95;;;;;;;4.87;88.51;101574.27;1679232;83;21007;-85
2022/12/30 01:30:17;;;;;;;11.57;5.83;;;;;;;4.88;88.34;101566.45;1678100;83;21249;-85
2022/12/30 01:32:44;;;;;;;8.93;4.62;;;;;;;4.90;88.18;101568.57;1670061;83;21078;-86
2022/12/30 01:35:11;;;;;;;8.93;5.65;;;;;;;4.89;88.05;101568.17;1656544;84;21022;-87
2022/12/30 01:37:38;;;;;;;8.05;4.75;;;;;;;4.89;88.16;101564.69;1651559;85;20988;-86
2022/12/30 01:40:06;;;;;;;7.30;4.60;;;;;;;4.93;88.22;101568.49;1674552;84;20949;-86
2022/12/30 01:42:39;;;;;;;7.87;5.65;;;;;;;4.95;88.04;101554.17;1676864;83;21176;-85
2022/12/30 01:45:26;;;;;;;7.30;5.62;;;;;;;4.96;88.12;101551.55;1678382;84;21607;-85
2022/12/30 01:48:03;;;;;;;12.82;6.42;;;;;;;4.97;88.14;101549.34;1678722;84;20976;-85
2022/12/30 01:50:55;;;;;;;7.50;5.15;;;;;;;4.96;88.24;101545.50;1667415;83;21287;-86
2022/12/30 01:53:31;;;;;;;7.15;4.72;;;;;;;4.92;88.32;101548.60;1663149;84;20956;-83
2022/12/30 01:56:07;;;;;;;6.90;4.80;;;;;;;4.91;88.39;101552.52;1659639;85;21099;-86
2022/12/30 01:58:53;;;;;;;8.33;4.80;;;;;;;4.90;88.43;101549.53;1675416;83;21099;-85
2022/12/30 02:01:20;;;;;;;7.10;3.70;;;;;;;4.89;88.65;101556.89;1647745;84;21568;-85
2022/12/30 02:03:50;;;;;;;7.42;4.58;;;;;;;4.88;88.85;101550.85;1668842;84;21063;-84
2022/12/30 02:06:20;;;;;;;10.20;4.45;;;;;;;4.89;88.91;101542.19;1652618;83;20976;-84
2022/12/30 02:08:47;;;;;;;6.97;4.50;;;;;;;4.92;88.98;101546.00;1663206;83;21228;-86
2022/12/30 02:11:13;;;;;;;7.53;4.37;;;;;;;4.95;89.08;101552.42;1656836;83;20956;-84
2022/12/30 02:13:40;;;;;;;7.15;4.40;;;;;;;5.01;88.96;101557.10;1671699;83;21197;-84
2022/12/30 02:16:46;;;;;;;8.25;4.78;;;;;;;5.03;88.62;101551.42;1666043;84;21027;-84
2022/12/30 02:20:01;;;;;;;8.78;4.92;;;;;;;5.01;88.46;101552.75;1667026;84;21425;-86
2022/12/30 02:23:07;;;;;;;4.85;3.50;;;;;;;5.01;88.32;101557.10;1658355;85;21211;-84
2022/12/30 02:26:01;;;;;;;8.53;4.53;;;;;;;4.98;88.29;101551.08;1681067;82;21003;-85
2022/12/30 02:28:48;;;;;;;9.73;5.12;;;;;;;4.97;88.27;101551.95;1670449;84;21035;-84
2022/12/30 02:31:39;;;;;;;10.08;4.55;;;;;;;4.98;88.51;101551.53;1661625;85;21030;-85
2022/12/30 02:34:43;;;;;;;7.62;4.20;;;;;;;5.03;88.57;101543.17;1661087;84;20994;-84
2022/12/30 02:37:24;;;;;;;8.03;5.08;;;;;;;5.05;88.70;101547.89;1667649;84;21259;-86
2022/12/30 02:40:07;;;;;;;5.90;4.60;;;;;;;5.07;88.91;101551.33;1671775;85;21521;-85
2022/12/30 02:45:51;;;;;;;8.03;4.90;;;;;;;5.13;89.23;101558.11;1676536;83;20893;-85
2022/12/30 02:48:21;;;;;;;9.43;5.72;;;;;;;5.15;89.36;101557.19;1665783;84;21387;-85
2022/12/30 02:53:37;;;;;;;10.90;5.20;;;;;;;5.17;89.59;101551.51;1664709;84;21544;-85
2022/12/30 02:56:05;;;;;;;9.23;5.17;;;;;;;5.13;89.79;101547.71;1663345;85;21178;-85
2022/12/30 02:58:34;;;;;;;6.60;4.70;;;;;;;5.11;89.93;101557.29;1658951;84;21063;-86
2022/12/30 03:04:47;;;;;;;10.30;5.05;;;;;;;5.10;90.09;101549.09;1680415;82;21180;-84
2022/12/30 03:07:28;;;;;;;6.62;4.30;;;;;;;5.10;90.06;101557.74;1668511;83;21004;-86
2022/12/30 03:13:06;;;;;;;6.62;4.10;;;;;;;5.10;90.36;101553.84;1713808;82;21189;-86
2022/12/30 03:15:43;;;;;;;11.78;5.53;;;;;;;5.11;90.40;101554.69;1712470;82;21040;-85
2022/12/30 03:18:10;;;;;;;6.72;4.47;;;;;;;5.10;90.42;101556.89;1708144;80;21968;-86
2022/12/30 03:20:39;;;;;;;8.63;5.45;;;;;;;5.09;90.53;101556.05;1728473;81;20897;-86
2022/12/30 03:28:37;;;;;;;10.72;4.78;;;;;;;5.04;90.52;101564.37;1698794;83;20952;-86
2022/12/30 03:31:06;;;;;;;9.45;4.83;;;;;;;5.01;90.81;101559.25;1695218;82;21234;-86
2022/12/30 03:33:33;;;;;;;8.05;5.05;;;;;;;5.00;91.01;101564.02;1680641;83;21015;-86
2022/12/30 03:36:12;;;;;;;8.10;4.67;;;;;;;5.00;91.18;101557.52;1706254;82;21157;-84
2022/12/30 03:38:45;;;;;;;13.95;5.58;;;;;;;5.02;91.28;101557.05;1722132;82;20921;-86
2022/12/30 03:41:12;;;;;;;8.38;4.87;;;;;;;5.03;91.33;101557.92;1712403;82;21022;-84
2022/12/30 03:43:39;;;;;;;9.93;4.62;;;;;;;5.07;91.48;101563.02;1721892;82;21250;-86
2022/12/30 03:46:06;;;;;;;11.25;5.42;;;;;;;5.15;91.51;101565.44;1715083;82;21137;-86
2022/12/30 03:48:33;;;;;;;8.33;4.78;;;;;;;5.20;91.41;101562.28;1671408;82;21036;-85
2022/12/30 03:51:00;;;;;;;10.23;4.80;;;;;;;5.25;91.35;101564.35;1726623;82;21039;-86
2022/12/30 03:53:27;;;;;;;10.43;5.45;;;;;;;5.27;91.19;101559.98;1723052;82;21401;-85
2022/12/30 03:55:53;;;;;;;13.00;6.37;;;;;;;5.31;91.03;101564.64;1716079;82;21133;-83
2022/12/30 03:58:20;;;;;;;4.92;4.37;;;;;;;5.32;90.84;101564.61;1715376;82;20940;-85
2022/12/30 04:00:49;;;;;;;7.37;4.65;;;;;;;5.33;90.65;101570.21;1711096;82;21111;-86
2022/12/30 04:03:15;;;;;;;11.78;6.45;;;;;;;5.34;90.65;101571.09;1674105;82;21065;-86
2022/12/30 04:05:42;;;;;;;9.20;4.65;;;;;;;5.35;90.80;101571.03;1712830;82;21055;-86
2022/12/30 04:08:09;;;;;;;8.65;3.92;;;;;;;5.40;90.86;101574.83;1727776;81;21886;-86
2022/12/30 04:10:35;;;;;;;5.30;3.70;;;;;;;5.45;90.92;101574.30;1717399;82;20900;-85
2022/12/30 04:13:02;;;;;;;9.83;4.70;;;;;;;5.51;90.83;101577.19;1716415;82;21612;-85
2022/12/30 04:15:29;;;;;;;8.93;5.03;;;;;;;5.55;90.71;101580.98;1722288;82;20952;-87
2022/12/30 04:17:55;;;;;;;8.15;4.50;;;;;;;5.58;90.50;101583.95;1718855;82;21448;-86
2022/12/30 04:20:23;;;;;;;9.68;4.90;;;;;;;5.61;90.28;101581.30;1718955;82;21152;-84
2022/12/30 04:22:49;;;;;;;9.78;4.65;;;;;;;5.62;90.08;101576.48;1721244;82;20944;-85
2022/12/30 04:25:16;;;;;;;11.83;5.40;;;;;;;5.64;89.88;101577.30;1712632;82;21177;-86
2022/12/30 04:27:42;;;;;;;18.37;10.58;;;;;;;5.65;89.74;101576.85;1718433;82;21121;-84
2022/12/30 04:30:10;;;;;;;12.25;5.37;;;;;;;5.66;89.71;101573.38;1721856;82;21026;-85
2022/12/30 04:32:37;;;;;;;14.05;10.28;;;;;;;5.68;89.72;101580.25;1713431;82;21187;-85
2022/12/30 04:35:05;;;;;;;9.85;4.53;;;;;;;5.73;89.77;101586.19;1708862;82;21137;-86
2022/12/30 04:37:33;;;;;;;5.87;3.92;;;;;;;5.77;89.49;101573.52;1728291;82;20972;-85
2022/12/30 04:40:00;;;;;;;10.88;6.60;;;;;;;5.80;89.18;101579.97;1729248;82;20964;-85
2022/12/30 04:42:27;;;;;;;11.43;5.58;;;;;;;5.81;89.35;101580.36;1716528;81;20992;-85
2022/12/30 04:44:53;;;;;;;11.88;5.10;;;;;;;5.82;89.17;101578.60;1729338;82;21244;-84
2022/12/30 04:47:20;;;;;;;11.08;4.83;;;;;;;5.84;89.09;101575.97;1721492;82;20869;-85
2022/12/30 04:49:46;;;;;;;6.92;4.95;;;;;;;5.84;88.85;101573.37;1720150;82;21083;-85
2022/12/30 04:52:13;;;;;;;7.10;4.65;;;;;;;5.77;88.60;101577.41;1713516;82;20953;-85
2022/12/30 04:54:40;;;;;;;5.35;3.40;;;;;;;5.71;88.67;101573.66;1727753;82;20893;-86
2022/12/30 04:57:07;;;;;;;13.00;7.85;;;;;;;5.68;88.81;101578.09;1728038;82;21126;-85
2022/12/30 04:59:34;;;;;;;12.05;7.55;;;;;;;5.66;88.95;101578.58;1725928;82;21101;-86
2022/12/30 05:02:01;;;;;;;12.50;7.92;;;;;;;5.66;89.13;101576.83;1719701;82;21034;-87
2022/12/30 05:04:27;;;;;;;12.15;6.20;;;;;;;5.68;89.20;101580.70;1711476;83;21034;-87
2022/12/30 05:06:55;;;;;;;18.25;8.75;;;;;;;5.69;89.24;101577.19;1724959;82;21038;-87
2022/12/30 05:09:21;;;;;;;12.03;5.92;;;;;;;5.68;89.20;101581.55;1719387;82;21126;-86
2022/12/30 05:11:48;;;;;;;15.68;6.67;;;;;;;5.68;89.24;101578.95;1709606;82;21592;-86
2022/12/30 05:14:15;;;;;;;11.33;4.80;;;;;;;5.71;89.18;101589.27;1717621;82;20972;-86
2022/12/30 05:16:42;;;;;;;12.35;4.75;;;;;;;5.73;89.09;101591.39;1707724;82;20968;-86
2022/12/30 05:19:09;;;;;;;7.87;4.92;;;;;;;5.72;89.22;101593.59;1718388;82;21023;-85
2022/12/30 05:21:35;;;;;;;11.22;5.50;;;;;;;5.73;89.34;101593.14;1721756;82;21895;-86
2022/12/30 05:26:47;;;;;;;8.65;5.22;;;;;;;5.76;89.64;101593.94;1726209;82;21019;-85
2022/12/30 05:29:14;;;;;;;10.20;6.72;;;;;;;5.77;89.71;101593.03;1715316;82;20976;-86
2022/12/30 05:31:42;;;;;;;10.40;5.40;;;;;;;5.79;89.69;101591.25;1724685;82;20943;-86
2022/12/30 05:34:09;;;;;;;14.78;8.40;;;;;;;5.81;89.49;101596.42;1720146;82;21100;-89
2022/12/30 05:36:37;;;;;;;15.30;8.68;;;;;;;5.79;89.15;101602.96;1724044;82;20904;-87
2022/12/30 05:39:05;;;;;;;10.00;5.87;;;;;;;5.75;89.00;101600.02;1709188;82;20916;-88
2022/12/30 05:41:32;;;;;;;11.63;5.75;;;;;;;5.72;89.04;101609.21;1719122;82;20878;-86
2022/12/30 05:43:58;;;;;;;10.18;4.03;;;;;;;5.70;89.06;101603.19;1726586;82;20926;-87
2022/12/30 05:46:25;;;;;;;7.58;3.60;;;;;;;5.70;89.16;101604.94;1726756;82;21114;-87
2022/12/30 05:48:51;;;;;;;7.70;4.28;;;;;;;5.70;89.08;101606.25;1717820;82;20891;-86
2022/12/30 05:51:18;;;;;;;7.87;4.40;;;;;;;5.72;88.98;101596.66;1719018;82;20908;-86
2022/12/30 05:53:44;;;;;;;11.40;4.20;;;;;;;5.71;88.87;101598.38;1707405;82;20908;-86
2022/12/30 05:56:11;;;;;;;7.92;5.55;;;;;;;5.70;88.66;101591.48;1656485;84;21066;-88
2022/12/30 05:58:37;;;;;;;9.15;6.92;;;;;;;5.67;88.49;101591.56;1678102;83;21338;-86
2022/12/30 06:01:04;;;;;;;17.02;10.90;;;;;;;5.63;88.37;101598.18;1661744;83;21123;-88
2022/12/30 06:03:31;;;;;;;11.40;7.95;;;;;;;5.59;88.39;101600.84;1661798;84;21024;-88
2022/12/30 06:06:00;;;;;;;10.35;6.00;;;;;;;5.55;88.46;101591.84;1675318;83;21048;-85
2022/12/30 06:08:26;;;;;;;14.75;7.00;;;;;;;5.53;88.55;101596.22;1673263;83;20952;-87
2022/12/30 06:10:53;;;;;;;8.50;4.15;;;;;;;5.52;88.63;101599.27;1674193;84;21235;-86
2022/12/30 06:13:20;;;;;;;8.38;4.45;;;;;;;5.53;88.61;101598.37;1686155;83;20962;-86
2022/12/30 06:15:46;;;;;;;5.92;4.35;;;;;;;5.50;88.64;101594.55;1676376;83;20933;-86
2022/12/30 06:18:13;;;;;;;5.95;4.90;;;;;;;5.49;88.66;101595.45;1678253;83;21039;-86
2022/12/30 06:20:40;;;;;;;7.12;4.47;;;;;;;5.48;88.61;101597.62;1672391;84;20944;-86
2022/12/30 06:23:06;;;;;;;7.08;4.33;;;;;;;5.47;88.48;101592.45;1673097;83;21247;-86
2022/12/30 06:25:33;;;;;;;6.53;4.42;;;;;;;5.44;88.42;101594.69;1711817;82;20975;-86
2022/12/30 06:27:59;;;;;;;15.35;5.95;;;;;;;5.40;88.39;101600.42;1724835;82;20944;-87
2022/12/30 06:30:26;;;;;;;6.85;4.05;;;;;;;5.37;88.59;101614.77;1724767;82;20917;-85
2022/12/30 06:32:55;;;;;;;7.42;4.60;;;;;;;5.34;88.81;101610.95;1728952;82;20932;-86
2022/12/30 06:35:22;;;;;;;8.68;4.90;;;;;;;5.33;89.12;101615.73;1715117;80;21435;-86
2022/12/30 06:37:48;;;;;;;8.98;4.03;;;;;;;5.36;89.29;101620.03;1730591;81;20992;-86
2022/12/30 06:40:15;;;;;;;8.95;4.35;;;;;;;5.39;89.47;101618.20;1727279;81;21007;-86
2022/12/30 06:42:41;;;;;;;6.75;4.72;;;;;;;5.43;89.49;101612.50;1718215;80;21288;-87
2022/12/30 06:45:08;;;;;;;11.57;7.47;;;;;;;5.46;89.35;101610.27;1720508;80;20925;-87
2022/12/30 06:47:35;;;;;;;9.43;5.30;;;;;;;5.46;89.27;101614.17;1731178;81;21181;-86
2022/12/30 06:50:01;;;;;;;4.40;3.70;;;;;;;5.47;89.14;101611.96;1724836;81;21105;-86
2022/12/30 06:52:28;;;;;;;7.95;3.58;;;;;;;5.48;89.18;101614.98;1727341;80;20962;-85
2022/12/30 06:54:55;;;;;;;7.25;3.58;;;;;;;5.47;89.24;101610.66;1729015;80;21011;-85
2022/12/30 06:57:21;;;;;;;4.87;3.70;;;;;;;5.48;89.35;101612.39;1730065;81;21213;-85
2022/12/30 06:59:48;;;;;;;4.87;3.02;;;;;;;5.51;89.64;101608.41;1726555;81;21239;-85
2022/12/30 07:02:14;;;;;;;5.30;3.20;;;;;;;5.58;89.69;101604.34;1710992;81;20970;-87
2022/12/30 07:04:41;;;;;;;12.40;4.37;;;;;;;5.67;89.67;101599.79;1726324;80;20977;-86
2022/12/30 07:07:07;;;;;;;7.53;4.83;;;;;;;5.75;89.60;101603.08;1717186;81;20955;-87
2022/12/30 07:09:34;;;;;;;9.73;5.05;;;;;;;5.83;89.54;101614.62;1733753;80;21019;-85
2022/12/30 07:12:01;;;;;;;8.13;4.60;;;;;;;5.91;89.39;101610.06;1718478;82;21311;-86
2022/12/30 07:14:28;;;;;;;8.55;4.20;;;;;;;5.97;88.87;101615.16;1714900;82;21006;-87
2022/12/30 07:16:54;;;;;;;6.30;3.75;;;;;;;5.97;88.75;101612.09;1713767;82;21089;-87
2022/12/30 07:19:21;;;;;;;6.30;3.77;;;;;;;6.01;88.59;101619.40;1718124;82;21080;-87
2022/12/30 07:21:48;;;;;;;7.85;4.17;;;;;;;6.02;88.69;101618.48;1718186;82;21057;-85
2022/12/30 07:24:15;;;;;;;6.85;4.70;;;;;;;6.07;88.67;101615.77;1726421;82;21157;-85
2022/12/30 07:26:42;;;;;;;11.38;6.60;;;;;;;6.11;88.60;101620.86;1728026;82;20869;-87
2022/12/30 07:29:09;;;;;;;7.75;4.37;;;;;;;6.20;88.62;101618.47;1724736;82;21468;-85
2022/12/30 07:31:36;;;;;;;8.45;5.30;;;;;;;6.30;88.29;101615.20;1721113;82;21466;-88
2022/12/30 07:34:03;;;;;;;12.82;6.65;;;;;;;6.35;87.88;101613.32;1721498;82;21022;-88
2022/12/30 07:36:29;;;;;;;10.88;6.35;;;;;;;6.38;87.70;101613.22;1684948;83;21243;-87
2022/12/30 07:38:57;;;;;;;7.35;5.05;;;;;;;6.43;87.42;101617.89;1687473;83;20971;-86
2022/12/30 07:41:28;;;;;;;7.00;4.42;;;;;;;6.49;87.32;101616.85;1710387;82;21476;-88
2022/12/30 07:43:54;;;;;;;13.13;5.33;;;;;;;6.57;87.23;101616.20;1720059;82;20945;-87
2022/12/30 07:46:21;;;;;;;10.95;5.20;;;;;;;6.67;86.99;101616.37;1722135;82;20897;-86
2022/12/30 07:48:48;;;;;;;9.83;5.65;;;;;;;6.75;86.54;101620.91;1712137;82;21190;-88
2022/12/30 07:51:15;;;;;;;4.97;3.37;;;;;;;6.82;86.50;101619.83;1723565;82;21036;-88
2022/12/30 07:53:42;;;;;;;7.75;4.95;;;;;;;6.88;86.08;101622.72;1715012;82;21153;-86
2022/12/30 07:56:10;;;;;;;8.28;4.45;;;;;;;6.93;85.88;101619.98;1678621;83;21048;-87
2022/12/30 07:58:37;;;;;;;7.00;3.75;;;;;;;6.98;85.79;101624.18;1669716;83;21039;-87
2022/12/30 08:01:10;;;;;;;9.30;4.83;;;;;;;7.06;85.79;101627.86;1677825;83;21275;-87
2022/12/30 08:03:37;;;;;;;11.28;4.45;;;;;;;7.15;85.50;101627.58;1674919;84;20947;-87
2022/12/30 08:06:12;;;;;;;7.05;4.92;;;;;;;7.21;85.34;101627.86;1666029;83;21003;-89
2022/12/30 08:08:39;;;;;;;6.75;4.08;;;;;;;7.25;85.08;101627.72;1717534;82;21109;-88
2022/12/30 08:11:05;;;;;;;8.43;4.65;;;;;;;7.25;85.01;101627.72;1716868;82;21063;-88
2022/12/30 08:13:34;;;;;;;12.40;5.30;;;;;;;7.23;84.92;101631.28;1709251;82;21611;-87
2022/12/30 08:16:07;;;;;;;20.12;6.05;;;;;;;7.21;84.88;101637.84;1707429;82;21007;-86
2022/12/30 08:18:34;;;;;;;10.35;5.33;;;;;;;7.21;84.99;101630.47;1721747;82;20979;-87
2022/12/30 08:21:03;;;;;;;6.00;4.67;;;;;;;7.23;84.96;101626.91;1727225;82;20908;-87
2022/12/30 08:23:30;;;;;;;9.28;4.55;;;;;;;7.26;85.04;101628.57;1725135;82;20905;-86
2022/12/30 08:26:04;;;;;;;17.25;5.03;;;;;;;7.30;85.09;101628.89;1717863;82;21641;-87
2022/12/30 08:28:30;;;;;;;28.45;17.55;;;;;;;7.33;85.17;101620.95;1696928;82;21043;-88
2022/12/30 08:30:57;;;;;;;8.93;4.85;;;;;;;7.35;85.11;101628.30;1676648;84;20975;-88
2022/12/30 08:33:24;;;;;;;12.88;6.40;;;;;;;7.39;85.14;101616.02;1664198;83;20944;-88
2022/12/30 08:35:50;;;;;;;6.90;4.75;;;;;;;7.42;85.01;101619.37;1670218;83;20994;-86
2022/12/30 08:38:17;;;;;;;8.10;5.17;;;;;;;7.46;85.01;101624.05;1718249;81;21088;-88
2022/12/30 08:40:43;;;;;;;14.40;4.65;;;;;;;7.51;84.99;101618.23;1715752;80;20955;-87
2022/12/30 08:43:12;;;;;;;9.10;4.53;;;;;;;7.57;84.84;101621.12;1727719;81;21033;-87
2022/12/30 08:45:38;;;;;;;7.03;4.30;;;;;;;7.59;84.90;101613.63;1685558;82;21206;-88
2022/12/30 08:50:25;;;;;;;13.43;4.87;;;;;;;7.80;84.84;101603.40;1819370;75;22765;-87
2022/12/30 08:52:52;;;;;;;10.08;4.55;;;;;;;7.80;84.56;101609.50;1792295;77;20955;-88
2022/12/30 08:55:19;;;;;;;11.43;8.15;;;;;;;7.83;84.30;101609.84;1792348;79;21192;-88
2022/12/30 08:57:45;;;;;;;23.42;6.40;;;;;;;7.81;84.19;101612.50;1792618;76;21145;-87
2022/12/30 09:00:12;;;;;;;5.47;4.28;;;;;;;7.83;84.16;101612.46;1793001;78;20986;-87
2022/12/30 09:02:42;;;;;;;8.53;3.92;;;;;;;7.84;84.14;101606.31;1793085;76;21006;-87
2022/12/30 09:05:10;;;;;;;11.05;6.53;;;;;;;7.83;84.15;101610.70;1792000;77;21014;-88
2022/12/30 09:07:38;;;;;;;6.58;4.30;;;;;;;7.85;84.18;101600.21;1792232;77;21167;-90
2022/12/30 09:10:10;;;;;;;8.50;5.03;;;;;;;7.84;84.01;101594.56;1792176;79;20986;-87
2022/12/30 09:12:34;;;;;;;12.55;5.25;;;;;;;7.82;84.18;101595.91;1791658;77;20919;-86
2022/12/30 09:15:00;;;;;;;6.65;5.10;;;;;;;7.84;84.28;101598.02;1791462;80;20905;-87
2022/12/30 09:17:27;;;;;;;7.33;5.17;;;;;;;7.85;83.94;101591.92;1790668;80;21507;-89
2022/12/30 09:19:54;;;;;;;9.53;5.08;;;;;;;7.84;83.92;101590.19;1790533;80;21144;-87
2022/12/30 09:22:21;;;;;;;7.35;5.25;;;;;;;7.83;83.93;101587.19;1792227;80;20935;-87
2022/12/30 09:24:47;;;;;;;20.62;7.03;;;;;;;7.81;83.87;101599.44;1791544;80;20998;-89
2022/12/30 09:27:15;;;;;;;10.58;4.87;;;;;;;7.80;83.91;101595.14;1790970;80;20994;-88
2022/12/30 09:29:41;;;;;;;8.93;6.17;;;;;;;7.78;84.03;101599.98;1792291;80;21417;-89
2022/12/30 09:32:08;;;;;;;14.30;9.70;;;;;;;7.76;84.05;101593.53;1792502;80;21265;-88
2022/12/30 09:34:35;;;;;;;9.85;5.72;;;;;;;7.72;83.96;101584.54;1792104;80;20912;-87
2022/12/30 09:37:02;;;;;;;6.95;4.60;;;;;;;7.65;84.08;101582.58;1792050;80;20891;-87
2022/12/30 09:39:31;;;;;;;10.13;4.90;;;;;;;7.62;84.21;101586.58;1792147;79;20955;-88
2022/12/30 09:45:25;;;;;;;11.57;5.37;;;;;;;7.53;84.49;101577.28;1790767;80;21193;-88
2022/12/30 09:47:54;;;;;;;10.30;5.45;;;;;;;7.51;84.70;101580.84;1789971;80;20868;-88
2022/12/30 09:50:44;;;;;;;11.97;6.12;;;;;;;7.51;84.79;101580.39;1785790;80;20900;-88
2022/12/30 09:53:36;;;;;;;10.08;6.37;;;;;;;7.51;84.76;101584.30;1784495;80;20979;-87
2022/12/30 09:56:13;;;;;;;8.80;5.40;;;;;;;7.50;84.83;101585.67;1785420;80;20895;-87
2022/12/30 09:58:39;;;;;;;7.05;5.62;;;;;;;7.49;84.65;101584.80;1785326;80;21140;-88
2022/12/30 10:01:24;;;;;;;10.00;5.08;;;;;;;7.45;84.60;101584.06;1754323;80;20881;-87
2022/12/30 10:03:56;;;;;;;14.07;8.13;;;;;;;7.44;84.54;101582.80;1785200;80;21089;-86
2022/12/30 10:06:33;;;;;;;13.68;8.05;;;;;;;7.41;84.61;101576.37;1784691;80;21374;-85
2022/12/30 10:09:31;;;;;;;14.00;7.08;;;;;;;7.38;84.88;101570.81;1785218;80;20983;-88
2022/12/30 10:12:22;;;;;;;16.32;8.95;;;;;;;7.42;84.93;101561.11;1784512;80;21790;-88
2022/12/30 10:15:03;;;;;;;16.12;9.05;;;;;;;7.43;84.87;101561.07;1784323;80;20939;-84
2022/12/30 14:03:29;;;;;;;21.30;10.85;;;;;;;7.57;92.65;101435.33;1762667;80;20971;-91
2022/12/30 14:05:59;;;;;;;31.33;14.47;;;;;;;7.57;92.65;101429.27;1746347;80;21027;-89
2022/12/30 14:08:32;;;;;;;20.68;12.85;;;;;;;7.57;92.67;101426.66;1775048;80;20920;-91
2022/12/30 14:11:09;;;;;;;23.05;12.20;;;;;;;7.57;92.68;101427.97;1783685;78;20948;-92
2022/12/30 14:13:51;;;;;;;19.12;10.82;;;;;;;7.57;92.73;101430.57;1756790;78;20881;-91
2022/12/30 14:16:54;;;;;;;22.87;12.23;;;;;;;7.57;92.75;101424.05;1776356;78;21203;-92
2022/12/30 14:23:15;;;;;;;16.27;9.53;;;;;;;7.57;92.78;101423.59;1671333;80;21082;-92
2022/12/30 14:25:51;;;;;;;22.98;13.38;;;;;;;7.57;92.81;101424.05;1669082;81;21154;-89
2022/12/30 14:28:26;;;;;;;17.48;10.05;;;;;;;7.53;92.87;101421.98;1611629;85;21098;-89
2022/12/30 14:31:01;;;;;;;17.60;10.58;;;;;;;7.51;93.07;101422.48;1615612;87;21377;-91
2022/12/30 14:33:40;;;;;;;23.02;13.10;;;;;;;7.50;93.29;101418.19;1617619;85;21094;-90
2022/12/30 14:36:18;;;;;;;22.02;10.53;;;;;;;7.44;93.44;101413.17;1631225;86;20963;-90
2022/12/30 14:38:57;;;;;;;18.10;10.00;;;;;;;7.47;93.63;101419.15;1631281;86;21081;-87
2022/12/30 14:41:43;;;;;;;20.88;11.57;;;;;;;7.49;93.73;101413.85;1631725;86;20956;-87
2022/12/30 14:44:21;;;;;;;22.40;10.82;;;;;;;7.52;93.86;101415.53;1635258;86;21457;-87
2022/12/30 14:46:57;;;;;;;16.77;8.88;;;;;;;7.56;93.92;101421.02;1611084;87;21047;-86
2022/12/30 14:49:35;;;;;;;14.85;9.00;;;;;;;7.57;94.03;101417.52;1627841;86;21568;-86
2022/12/30 14:52:19;;;;;;;12.93;7.55;;;;;;;7.60;94.04;101426.11;1639355;86;21055;-87
2022/12/30 14:55:23;;;;;;;11.22;6.10;;;;;;;7.64;94.06;101431.59;1653562;84;20970;-88
2022/12/30 14:58:18;;;;;;;13.98;7.42;;;;;;;7.70;94.00;101424.48;1670056;83;21173;-88
2022/12/30 15:00:49;;;;;;;8.70;6.92;;;;;;;7.72;93.90;101436.57;1652749;84;20889;-87
2022/12/30 15:03:20;;;;;;;16.62;9.98;;;;;;;7.74;93.89;101434.77;1682461;82;20940;-89
2022/12/30 15:05:54;;;;;;;23.38;17.07;;;;;;;7.74;93.84;101438.67;1678810;82;21095;-92
2022/12/30 15:08:21;;;;;;;18.98;10.35;;;;;;;7.74;93.79;101426.92;1716492;81;21007;-89
2022/12/30 15:10:56;;;;;;;15.70;9.20;;;;;;;7.74;93.84;101424.32;1717473;81;21763;-87
2022/12/30 15:13:42;;;;;;;15.75;11.08;;;;;;;7.74;94.08;101418.25;1718329;81;20900;-87
2022/12/30 15:16:22;;;;;;;17.82;9.35;;;;;;;7.73;94.30;101413.45;1701326;81;20932;-86
2022/12/30 15:18:56;;;;;;;13.90;8.48;;;;;;;7.73;94.42;101414.77;1680467;82;21000;-87
2022/12/30 15:21:29;;;;;;;13.78;9.80;;;;;;;7.76;94.61;101412.06;1707498;82;21890;-86
2022/12/30 15:24:05;;;;;;;13.88;7.47;;;;;;;7.78;94.65;101414.17;1695643;83;21285;-85
2022/12/30 15:26:39;;;;;;;13.75;7.90;;;;;;;7.81;94.73;101414.52;1711519;81;21526;-87
2022/12/30 15:29:29;;;;;;;15.30;7.87;;;;;;;7.84;94.75;101423.06;1686353;82;21109;-91
2022/12/30 15:35:18;;;;;;;10.28;7.22;;;;;;;7.86;94.80;101431.70;1569707;88;20987;-91
2022/12/30 15:37:49;;;;;;;10.43;7.58;;;;;;;7.86;94.79;101424.33;1651586;85;21380;-91
2022/12/30 15:40:23;;;;;;;13.45;8.63;;;;;;;7.86;94.87;101429.55;1650326;82;20912;-92
2022/12/30 15:43:09;;;;;;;18.80;9.83;;;;;;;7.86;94.91;101423.02;1648089;84;21136;-92
2022/12/30 15:45:41;;;;;;;15.23;9.28;;;;;;;7.87;94.81;101424.28;1637067;83;20919;-93
2022/12/30 15:48:34;;;;;;;11.83;9.00;;;;;;;7.84;94.79;101419.15;1650969;85;21245;-95
2022/12/30 15:51:18;;;;;;;17.15;9.13;;;;;;;7.80;94.82;101421.50;1642497;84;21093;-90
2022/12/30 15:53:55;;;;;;;8.97;5.87;;;;;;;7.74;95.10;101424.78;1640574;84;21050;-92
2022/12/30 15:56:29;;;;;;;10.60;6.67;;;;;;;7.67;95.61;101421.53;1645503;82;21735;-91
2022/12/30 15:59:06;;;;;;;14.30;7.20;;;;;;;7.63;96.24;101425.99;1648447;83;21397;-90
2022/12/30 16:01:38;;;;;;;12.35;6.12;;;;;;;7.64;96.48;101426.37;1653413;85;20928;-93
2022/12/30 16:04:11;;;;;;;10.08;5.70;;;;;;;7.66;96.81;101429.79;1644670;86;21221;-94
2022/12/30 16:06:51;;;;;;;8.73;5.28;;;;;;;7.69;96.98;101430.13;1649212;84;21096;-92
2022/12/30 16:09:46;;;;;;;12.25;6.00;;;;;;;7.73;97.32;101429.58;1636803;85;21077;-92
2022/12/30 16:12:40;;;;;;;18.57;8.18;;;;;;;7.76;97.46;101425.12;1642502;84;21071;-91
2022/12/30 16:15:18;;;;;;;17.02;9.30;;;;;;;7.81;97.77;101427.56;1640799;85;21089;-92
2022/12/30 16:17:57;;;;;;;14.87;8.45;;;;;;;7.85;97.72;101419.56;1662942;84;21340;-91
2022/12/30 16:20:45;;;;;;;13.35;7.37;;;;;;;7.88;97.73;101418.59;1637018;85;21139;-93
2022/12/30 16:23:18;;;;;;;15.78;8.73;;;;;;;7.89;97.75;101416.37;1657079;84;21026;-92
2022/12/30 16:25:55;;;;;;;13.93;7.62;;;;;;;7.92;97.77;101431.95;1632462;85;21058;-89
2022/12/30 16:28:43;;;;;;;9.43;7.17;;;;;;;7.93;97.79;101419.73;1640333;86;21593;-93
2022/12/30 16:31:13;;;;;;;11.35;7.83;;;;;;;7.94;97.76;101426.65;1637043;86;21287;-93
2022/12/30 16:33:44;;;;;;;11.10;5.50;;;;;;;7.95;97.69;101430.52;1641458;86;21785;-92
2022/12/30 16:36:17;;;;;;;16.37;12.55;;;;;;;7.98;97.58;101435.66;1623485;86;21062;-93
2022/12/30 16:38:53;;;;;;;15.35;10.10;;;;;;;8.00;97.50;101432.96;1637365;86;20935;-94
2022/12/30 16:41:23;;;;;;;14.83;7.50;;;;;;;8.00;97.43;101427.28;1639308;86;21103;-92